sensor_id;sensor_type;location;lat;lon;timestamp;P1;durP1;ratioP1;P2;durP2;ratioP2
49834;SDS011;35729;52.090;13.162;2023-05-07T00:01:26;17.67;;;15.80;;
49834;SDS011;35729;52.090;13.162;2023-05-07T00:03:54;18.58;;;15.82;;
49834;SDS011;35729;52.090;13.162;2023-05-07T00:06:23;17.08;;;15.27;;
49834;SDS011;35729;52.090;13.162;2023-05-07T00:08:56;18.55;;;16.08;;
49834;SDS011;35729;52.090;13.162;2023-05-07T00:11:25;19.85;;;15.85;;
49834;SDS011;35729;52.090;13.162;2023-05-07T00:13:54;20.27;;;15.93;;
49834;SDS011;35729;52.090;13.162;2023-05-07T00:16:22;17.95;;;15.10;;
49834;SDS011;35729;52.090;13.162;2023-05-07T00:18:51;18.73;;;15.48;;
49834;SDS011;35729;52.090;13.162;2023-05-07T00:21:20;17.40;;;15.38;;
49834;SDS011;35729;52.090;13.162;2023-05-07T00:23:51;17.65;;;15.65;;
49834;SDS011;35729;52.090;13.162;2023-05-07T00:26:22;16.70;;;14.60;;
49834;SDS011;35729;52.090;13.162;2023-05-07T00:28:51;18.77;;;15.43;;
49834;SDS011;35729;52.090;13.162;2023-05-07T00:31:19;17.13;;;14.48;;
49834;SDS011;35729;52.090;13.162;2023-05-07T00:33:47;21.67;;;15.48;;
49834;SDS011;35729;52.090;13.162;2023-05-07T00:36:16;18.98;;;15.30;;
49834;SDS011;35729;52.090;13.162;2023-05-07T00:38:44;16.30;;;14.55;;
49834;SDS011;35729;52.090;13.162;2023-05-07T00:41:22;15.65;;;13.85;;
49834;SDS011;35729;52.090;13.162;2023-05-07T00:43:50;16.23;;;13.77;;
49834;SDS011;35729;52.090;13.162;2023-05-07T00:46:19;16.67;;;14.48;;
49834;SDS011;35729;52.090;13.162;2023-05-07T00:48:48;16.33;;;13.30;;
49834;SDS011;35729;52.090;13.162;2023-05-07T00:51:18;15.00;;;13.02;;
49834;SDS011;35729;52.090;13.162;2023-05-07T00:53:46;17.17;;;14.23;;
49834;SDS011;35729;52.090;13.162;2023-05-07T00:56:15;15.35;;;13.73;;
49834;SDS011;35729;52.090;13.162;2023-05-07T00:58:46;15.23;;;13.48;;
49834;SDS011;35729;52.090;13.162;2023-05-07T01:01:15;16.98;;;14.45;;
49834;SDS011;35729;52.090;13.162;2023-05-07T01:03:43;17.77;;;13.85;;
49834;SDS011;35729;52.090;13.162;2023-05-07T01:06:12;20.75;;;14.05;;
49834;SDS011;35729;52.090;13.162;2023-05-07T01:08:42;16.50;;;14.48;;
49834;SDS011;35729;52.090;13.162;2023-05-07T01:11:11;17.60;;;14.73;;
49834;SDS011;35729;52.090;13.162;2023-05-07T01:13:40;19.77;;;14.45;;
49834;SDS011;35729;52.090;13.162;2023-05-07T01:16:11;17.73;;;14.50;;
49834;SDS011;35729;52.090;13.162;2023-05-07T01:18:40;18.38;;;15.63;;
49834;SDS011;35729;52.090;13.162;2023-05-07T01:21:10;16.50;;;14.70;;
49834;SDS011;35729;52.090;13.162;2023-05-07T01:23:42;16.73;;;14.18;;
49834;SDS011;35729;52.090;13.162;2023-05-07T01:26:11;16.85;;;14.63;;
49834;SDS011;35729;52.090;13.162;2023-05-07T01:28:40;15.43;;;13.82;;
49834;SDS011;35729;52.090;13.162;2023-05-07T01:31:08;16.77;;;14.35;;
49834;SDS011;35729;52.090;13.162;2023-05-07T01:33:37;16.67;;;14.68;;
49834;SDS011;35729;52.090;13.162;2023-05-07T01:36:08;16.30;;;13.38;;
49834;SDS011;35729;52.090;13.162;2023-05-07T01:38:37;16.85;;;13.93;;
49834;SDS011;35729;52.090;13.162;2023-05-07T01:41:11;16.02;;;14.15;;
49834;SDS011;35729;52.090;13.162;2023-05-07T01:43:40;20.05;;;14.48;;
49834;SDS011;35729;52.090;13.162;2023-05-07T01:46:09;16.58;;;14.00;;
49834;SDS011;35729;52.090;13.162;2023-05-07T01:48:38;17.60;;;14.23;;
49834;SDS011;35729;52.090;13.162;2023-05-07T01:51:11;19.63;;;14.55;;
49834;SDS011;35729;52.090;13.162;2023-05-07T01:53:42;17.52;;;14.13;;
49834;SDS011;35729;52.090;13.162;2023-05-07T01:56:15;18.63;;;15.05;;
49834;SDS011;35729;52.090;13.162;2023-05-07T01:58:44;17.08;;;12.80;;
49834;SDS011;35729;52.090;13.162;2023-05-07T02:01:13;16.90;;;14.40;;
49834;SDS011;35729;52.090;13.162;2023-05-07T02:03:41;15.50;;;12.60;;
49834;SDS011;35729;52.090;13.162;2023-05-07T02:06:10;15.00;;;12.70;;
49834;SDS011;35729;52.090;13.162;2023-05-07T02:08:38;16.77;;;12.70;;
49834;SDS011;35729;52.090;13.162;2023-05-07T02:11:10;15.13;;;12.57;;
49834;SDS011;35729;52.090;13.162;2023-05-07T02:13:38;13.10;;;11.68;;
49834;SDS011;35729;52.090;13.162;2023-05-07T02:16:06;13.38;;;11.85;;
49834;SDS011;35729;52.090;13.162;2023-05-07T02:18:35;14.43;;;11.88;;
49834;SDS011;35729;52.090;13.162;2023-05-07T02:21:04;13.68;;;11.95;;
49834;SDS011;35729;52.090;13.162;2023-05-07T02:23:32;15.80;;;11.55;;
49834;SDS011;35729;52.090;13.162;2023-05-07T02:26:04;14.13;;;11.23;;
49834;SDS011;35729;52.090;13.162;2023-05-07T02:28:32;13.02;;;10.98;;
49834;SDS011;35729;52.090;13.162;2023-05-07T02:31:02;13.45;;;11.73;;
49834;SDS011;35729;52.090;13.162;2023-05-07T02:33:30;15.63;;;11.00;;
49834;SDS011;35729;52.090;13.162;2023-05-07T02:36:05;15.60;;;11.75;;
49834;SDS011;35729;52.090;13.162;2023-05-07T02:38:33;15.35;;;11.30;;
49834;SDS011;35729;52.090;13.162;2023-05-07T02:41:05;14.10;;;11.70;;
49834;SDS011;35729;52.090;13.162;2023-05-07T02:43:33;15.98;;;12.15;;
49834;SDS011;35729;52.090;13.162;2023-05-07T02:46:02;13.38;;;11.77;;
49834;SDS011;35729;52.090;13.162;2023-05-07T02:48:31;14.77;;;11.98;;
49834;SDS011;35729;52.090;13.162;2023-05-07T02:51:00;13.07;;;11.10;;
49834;SDS011;35729;52.090;13.162;2023-05-07T02:53:29;13.77;;;11.40;;
49834;SDS011;35729;52.090;13.162;2023-05-07T02:55:58;14.05;;;11.32;;
49834;SDS011;35729;52.090;13.162;2023-05-07T02:58:30;13.13;;;11.73;;
49834;SDS011;35729;52.090;13.162;2023-05-07T03:00:58;13.32;;;11.43;;
49834;SDS011;35729;52.090;13.162;2023-05-07T03:03:26;12.48;;;11.15;;
49834;SDS011;35729;52.090;13.162;2023-05-07T03:05:55;13.90;;;11.70;;
49834;SDS011;35729;52.090;13.162;2023-05-07T03:08:23;12.70;;;10.75;;
49834;SDS011;35729;52.090;13.162;2023-05-07T03:10:52;13.13;;;11.18;;
49834;SDS011;35729;52.090;13.162;2023-05-07T03:13:21;13.48;;;11.38;;
49834;SDS011;35729;52.090;13.162;2023-05-07T03:15:52;15.68;;;11.80;;
49834;SDS011;35729;52.090;13.162;2023-05-07T03:18:20;16.83;;;11.93;;
49834;SDS011;35729;52.090;13.162;2023-05-07T03:20:48;14.40;;;11.38;;
49834;SDS011;35729;52.090;13.162;2023-05-07T03:23:17;12.05;;;10.75;;
49834;SDS011;35729;52.090;13.162;2023-05-07T03:25:45;11.93;;;10.73;;
49834;SDS011;35729;52.090;13.162;2023-05-07T03:28:14;13.32;;;11.50;;
49834;SDS011;35729;52.090;13.162;2023-05-07T03:30:43;13.32;;;11.52;;
49834;SDS011;35729;52.090;13.162;2023-05-07T03:33:14;12.00;;;10.50;;
49834;SDS011;35729;52.090;13.162;2023-05-07T03:35:42;13.98;;;10.95;;
49834;SDS011;35729;52.090;13.162;2023-05-07T03:38:10;12.95;;;11.63;;
49834;SDS011;35729;52.090;13.162;2023-05-07T03:40:39;11.63;;;10.20;;
49834;SDS011;35729;52.090;13.162;2023-05-07T03:43:07;12.30;;;11.07;;
49834;SDS011;35729;52.090;13.162;2023-05-07T03:45:36;13.23;;;11.45;;
49834;SDS011;35729;52.090;13.162;2023-05-07T03:48:04;13.02;;;10.88;;
49834;SDS011;35729;52.090;13.162;2023-05-07T03:50:35;12.10;;;10.80;;
49834;SDS011;35729;52.090;13.162;2023-05-07T03:53:04;15.07;;;10.95;;
49834;SDS011;35729;52.090;13.162;2023-05-07T03:55:32;13.38;;;11.15;;
49834;SDS011;35729;52.090;13.162;2023-05-07T03:58:01;17.27;;;10.60;;
49834;SDS011;35729;52.090;13.162;2023-05-07T04:00:29;14.10;;;10.65;;
49834;SDS011;35729;52.090;13.162;2023-05-07T04:03:03;15.85;;;11.43;;
49834;SDS011;35729;52.090;13.162;2023-05-07T04:05:31;11.43;;;10.10;;
49834;SDS011;35729;52.090;13.162;2023-05-07T04:08:03;11.57;;;10.35;;
49834;SDS011;35729;52.090;13.162;2023-05-07T04:10:31;11.52;;;10.20;;
49834;SDS011;35729;52.090;13.162;2023-05-07T04:13:00;13.48;;;10.68;;
49834;SDS011;35729;52.090;13.162;2023-05-07T04:15:35;12.68;;;10.50;;
49834;SDS011;35729;52.090;13.162;2023-05-07T04:18:03;13.52;;;10.13;;
49834;SDS011;35729;52.090;13.162;2023-05-07T04:20:33;13.85;;;10.95;;
49834;SDS011;35729;52.090;13.162;2023-05-07T04:23:06;13.38;;;9.93;;
49834;SDS011;35729;52.090;13.162;2023-05-07T04:25:34;12.10;;;10.68;;
49834;SDS011;35729;52.090;13.162;2023-05-07T04:28:03;11.52;;;9.52;;
49834;SDS011;35729;52.090;13.162;2023-05-07T04:30:32;12.43;;;10.13;;
49834;SDS011;35729;52.090;13.162;2023-05-07T04:33:00;12.05;;;9.27;;
49834;SDS011;35729;52.090;13.162;2023-05-07T04:35:29;12.25;;;8.95;;
49834;SDS011;35729;52.090;13.162;2023-05-07T04:37:57;11.25;;;8.38;;
49834;SDS011;35729;52.090;13.162;2023-05-07T04:40:29;10.60;;;9.50;;
49834;SDS011;35729;52.090;13.162;2023-05-07T04:42:57;10.23;;;8.75;;
49834;SDS011;35729;52.090;13.162;2023-05-07T04:45:26;9.57;;;8.57;;
49834;SDS011;35729;52.090;13.162;2023-05-07T04:47:55;11.10;;;8.63;;
49834;SDS011;35729;52.090;13.162;2023-05-07T04:50:23;9.50;;;8.25;;
49834;SDS011;35729;52.090;13.162;2023-05-07T04:52:52;9.82;;;8.55;;
49834;SDS011;35729;52.090;13.162;2023-05-07T04:55:20;11.38;;;8.13;;
49834;SDS011;35729;52.090;13.162;2023-05-07T04:57:51;9.23;;;8.32;;
49834;SDS011;35729;52.090;13.162;2023-05-07T05:00:21;10.35;;;8.20;;
49834;SDS011;35729;52.090;13.162;2023-05-07T05:02:50;11.65;;;9.40;;
49834;SDS011;35729;52.090;13.162;2023-05-07T05:05:19;12.00;;;8.43;;
49834;SDS011;35729;52.090;13.162;2023-05-07T05:07:47;11.52;;;8.30;;
49834;SDS011;35729;52.090;13.162;2023-05-07T05:10:16;16.10;;;12.35;;
49834;SDS011;35729;52.090;13.162;2023-05-07T05:12:45;14.52;;;10.45;;
49834;SDS011;35729;52.090;13.162;2023-05-07T05:15:16;11.80;;;8.95;;
49834;SDS011;35729;52.090;13.162;2023-05-07T05:17:45;11.73;;;9.40;;
49834;SDS011;35729;52.090;13.162;2023-05-07T05:20:13;12.05;;;9.68;;
49834;SDS011;35729;52.090;13.162;2023-05-07T05:22:42;13.98;;;9.73;;
49834;SDS011;35729;52.090;13.162;2023-05-07T05:25:10;10.15;;;8.95;;
49834;SDS011;35729;52.090;13.162;2023-05-07T05:27:39;11.82;;;9.00;;
49834;SDS011;35729;52.090;13.162;2023-05-07T05:30:08;10.13;;;9.13;;
49834;SDS011;35729;52.090;13.162;2023-05-07T05:32:40;10.73;;;9.15;;
49834;SDS011;35729;52.090;13.162;2023-05-07T05:35:09;10.68;;;9.27;;
49834;SDS011;35729;52.090;13.162;2023-05-07T05:37:37;11.68;;;9.73;;
49834;SDS011;35729;52.090;13.162;2023-05-07T05:40:06;12.25;;;10.95;;
49834;SDS011;35729;52.090;13.162;2023-05-07T05:42:35;11.52;;;8.95;;
49834;SDS011;35729;52.090;13.162;2023-05-07T05:45:04;10.95;;;9.25;;
49834;SDS011;35729;52.090;13.162;2023-05-07T05:47:34;13.00;;;9.25;;
49834;SDS011;35729;52.090;13.162;2023-05-07T05:50:05;12.52;;;9.48;;
49834;SDS011;35729;52.090;13.162;2023-05-07T05:52:34;10.68;;;8.90;;
49834;SDS011;35729;52.090;13.162;2023-05-07T05:55:03;13.68;;;9.00;;
49834;SDS011;35729;52.090;13.162;2023-05-07T05:57:32;15.80;;;9.35;;
49834;SDS011;35729;52.090;13.162;2023-05-07T06:00:01;10.07;;;8.80;;
49834;SDS011;35729;52.090;13.162;2023-05-07T06:02:30;9.70;;;8.68;;
49834;SDS011;35729;52.090;13.162;2023-05-07T06:04:58;13.05;;;8.75;;
49834;SDS011;35729;52.090;13.162;2023-05-07T06:07:30;9.88;;;8.52;;
49834;SDS011;35729;52.090;13.162;2023-05-07T06:09:59;8.13;;;7.32;;
49834;SDS011;35729;52.090;13.162;2023-05-07T06:12:28;10.02;;;8.35;;
49834;SDS011;35729;52.090;13.162;2023-05-07T06:14:56;10.60;;;7.88;;
49834;SDS011;35729;52.090;13.162;2023-05-07T06:17:25;9.65;;;8.15;;
49834;SDS011;35729;52.090;13.162;2023-05-07T06:19:53;10.80;;;8.25;;
49834;SDS011;35729;52.090;13.162;2023-05-07T06:22:22;11.77;;;8.60;;
49834;SDS011;35729;52.090;13.162;2023-05-07T06:24:53;11.45;;;9.02;;
49834;SDS011;35729;52.090;13.162;2023-05-07T06:27:21;10.45;;;9.35;;
49834;SDS011;35729;52.090;13.162;2023-05-07T06:29:50;14.52;;;9.57;;
49834;SDS011;35729;52.090;13.162;2023-05-07T06:32:18;11.63;;;9.55;;
49834;SDS011;35729;52.090;13.162;2023-05-07T06:34:47;12.48;;;10.80;;
49834;SDS011;35729;52.090;13.162;2023-05-07T06:37:37;12.88;;;11.43;;
49834;SDS011;35729;52.090;13.162;2023-05-07T06:40:15;14.55;;;11.48;;
49834;SDS011;35729;52.090;13.162;2023-05-07T06:42:44;12.55;;;10.63;;
49834;SDS011;35729;52.090;13.162;2023-05-07T06:45:12;12.15;;;10.02;;
49834;SDS011;35729;52.090;13.162;2023-05-07T06:47:41;11.68;;;9.80;;
49834;SDS011;35729;52.090;13.162;2023-05-07T06:50:10;10.55;;;9.43;;
49834;SDS011;35729;52.090;13.162;2023-05-07T06:52:41;10.70;;;8.60;;
49834;SDS011;35729;52.090;13.162;2023-05-07T06:55:09;9.80;;;8.60;;
49834;SDS011;35729;52.090;13.162;2023-05-07T06:57:41;10.00;;;8.88;;
49834;SDS011;35729;52.090;13.162;2023-05-07T07:00:10;10.23;;;8.43;;
49834;SDS011;35729;52.090;13.162;2023-05-07T07:02:39;10.13;;;8.35;;
49834;SDS011;35729;52.090;13.162;2023-05-07T07:05:08;9.32;;;8.13;;
49834;SDS011;35729;52.090;13.162;2023-05-07T07:07:37;8.50;;;7.47;;
49834;SDS011;35729;52.090;13.162;2023-05-07T07:10:06;9.43;;;6.93;;
49834;SDS011;35729;52.090;13.162;2023-05-07T07:12:35;9.52;;;6.85;;
49834;SDS011;35729;52.090;13.162;2023-05-07T07:15:13;9.50;;;7.13;;
49834;SDS011;35729;52.090;13.162;2023-05-07T07:17:42;9.23;;;6.35;;
49834;SDS011;35729;52.090;13.162;2023-05-07T07:20:11;9.15;;;6.97;;
49834;SDS011;35729;52.090;13.162;2023-05-07T07:22:39;8.02;;;6.35;;
49834;SDS011;35729;52.090;13.162;2023-05-07T07:25:08;7.07;;;6.38;;
49834;SDS011;35729;52.090;13.162;2023-05-07T07:27:37;7.75;;;6.15;;
49834;SDS011;35729;52.090;13.162;2023-05-07T07:30:06;9.65;;;6.93;;
49834;SDS011;35729;52.090;13.162;2023-05-07T07:32:38;10.10;;;7.47;;
49834;SDS011;35729;52.090;13.162;2023-05-07T07:35:07;7.88;;;6.88;;
49834;SDS011;35729;52.090;13.162;2023-05-07T07:37:36;9.82;;;8.07;;
49834;SDS011;35729;52.090;13.162;2023-05-07T07:40:05;10.68;;;6.78;;
49834;SDS011;35729;52.090;13.162;2023-05-07T07:42:35;7.68;;;5.88;;
49834;SDS011;35729;52.090;13.162;2023-05-07T07:45:04;8.65;;;6.00;;
49834;SDS011;35729;52.090;13.162;2023-05-07T07:47:33;10.75;;;6.47;;
49834;SDS011;35729;52.090;13.162;2023-05-07T07:50:05;9.13;;;6.20;;
49834;SDS011;35729;52.090;13.162;2023-05-07T07:52:34;7.00;;;6.30;;
49834;SDS011;35729;52.090;13.162;2023-05-07T07:55:03;7.25;;;6.30;;
49834;SDS011;35729;52.090;13.162;2023-05-07T07:57:33;9.75;;;6.47;;
49834;SDS011;35729;52.090;13.162;2023-05-07T08:00:02;6.57;;;5.40;;
49834;SDS011;35729;52.090;13.162;2023-05-07T08:02:32;9.30;;;6.65;;
49834;SDS011;35729;52.090;13.162;2023-05-07T08:05:00;6.53;;;5.55;;
49834;SDS011;35729;52.090;13.162;2023-05-07T08:07:31;6.95;;;4.78;;
49834;SDS011;35729;52.090;13.162;2023-05-07T08:10:00;6.05;;;5.18;;
49834;SDS011;35729;52.090;13.162;2023-05-07T08:12:29;5.88;;;4.40;;
49834;SDS011;35729;52.090;13.162;2023-05-07T08:14:57;5.88;;;4.65;;
49834;SDS011;35729;52.090;13.162;2023-05-07T08:17:26;5.72;;;4.70;;
49834;SDS011;35729;52.090;13.162;2023-05-07T08:19:54;5.72;;;4.75;;
49834;SDS011;35729;52.090;13.162;2023-05-07T08:22:23;4.93;;;4.43;;
49834;SDS011;35729;52.090;13.162;2023-05-07T08:24:54;4.97;;;4.47;;
49834;SDS011;35729;52.090;13.162;2023-05-07T08:27:22;6.65;;;4.53;;
49834;SDS011;35729;52.090;13.162;2023-05-07T08:29:51;7.38;;;4.75;;
49834;SDS011;35729;52.090;13.162;2023-05-07T08:32:20;7.32;;;4.82;;
49834;SDS011;35729;52.090;13.162;2023-05-07T08:34:48;6.05;;;4.75;;
49834;SDS011;35729;52.090;13.162;2023-05-07T08:37:17;6.15;;;5.30;;
49834;SDS011;35729;52.090;13.162;2023-05-07T08:39:45;7.78;;;4.88;;
49834;SDS011;35729;52.090;13.162;2023-05-07T08:42:17;5.75;;;4.53;;
49834;SDS011;35729;52.090;13.162;2023-05-07T08:44:45;5.53;;;4.07;;
49834;SDS011;35729;52.090;13.162;2023-05-07T08:47:14;5.60;;;4.50;;
49834;SDS011;35729;52.090;13.162;2023-05-07T08:49:44;4.90;;;3.85;;
49834;SDS011;35729;52.090;13.162;2023-05-07T08:52:13;5.32;;;3.80;;
49834;SDS011;35729;52.090;13.162;2023-05-07T08:54:41;5.00;;;4.50;;
49834;SDS011;35729;52.090;13.162;2023-05-07T08:57:11;4.90;;;4.30;;
49834;SDS011;35729;52.090;13.162;2023-05-07T08:59:42;5.60;;;4.05;;
49834;SDS011;35729;52.090;13.162;2023-05-07T09:02:11;8.57;;;4.85;;
49834;SDS011;35729;52.090;13.162;2023-05-07T09:04:40;5.20;;;4.45;;
49834;SDS011;35729;52.090;13.162;2023-05-07T09:07:08;5.82;;;4.60;;
49834;SDS011;35729;52.090;13.162;2023-05-07T09:09:37;5.28;;;4.50;;
49834;SDS011;35729;52.090;13.162;2023-05-07T09:12:06;6.63;;;4.30;;
49834;SDS011;35729;52.090;13.162;2023-05-07T09:14:35;5.15;;;3.80;;
49834;SDS011;35729;52.090;13.162;2023-05-07T09:17:06;5.53;;;4.95;;
49834;SDS011;35729;52.090;13.162;2023-05-07T09:19:34;8.23;;;5.93;;
49834;SDS011;35729;52.090;13.162;2023-05-07T09:22:03;7.05;;;4.85;;
49834;SDS011;35729;52.090;13.162;2023-05-07T09:24:34;6.65;;;4.32;;
49834;SDS011;35729;52.090;13.162;2023-05-07T09:27:03;5.15;;;4.65;;
49834;SDS011;35729;52.090;13.162;2023-05-07T09:29:31;7.25;;;4.55;;
49834;SDS011;35729;52.090;13.162;2023-05-07T09:32:01;4.90;;;4.10;;
49834;SDS011;35729;52.090;13.162;2023-05-07T09:34:32;6.45;;;4.32;;
49834;SDS011;35729;52.090;13.162;2023-05-07T09:37:02;6.82;;;4.50;;
49834;SDS011;35729;52.090;13.162;2023-05-07T09:39:38;5.53;;;4.35;;
49834;SDS011;35729;52.090;13.162;2023-05-07T09:42:07;4.32;;;3.92;;
49834;SDS011;35729;52.090;13.162;2023-05-07T09:44:36;7.03;;;5.38;;
49834;SDS011;35729;52.090;13.162;2023-05-07T09:47:05;6.85;;;4.97;;
49834;SDS011;35729;52.090;13.162;2023-05-07T09:49:37;7.18;;;5.03;;
49834;SDS011;35729;52.090;13.162;2023-05-07T09:52:07;5.53;;;4.97;;
49834;SDS011;35729;52.090;13.162;2023-05-07T09:54:36;5.88;;;3.90;;
49834;SDS011;35729;52.090;13.162;2023-05-07T09:57:06;6.30;;;4.57;;
49834;SDS011;35729;52.090;13.162;2023-05-07T09:59:37;5.70;;;4.20;;
49834;SDS011;35729;52.090;13.162;2023-05-07T10:02:06;6.18;;;4.30;;
49834;SDS011;35729;52.090;13.162;2023-05-07T10:04:40;5.45;;;4.68;;
49834;SDS011;35729;52.090;13.162;2023-05-07T10:07:09;8.32;;;6.03;;
49834;SDS011;35729;52.090;13.162;2023-05-07T10:09:37;5.32;;;4.70;;
49834;SDS011;35729;52.090;13.162;2023-05-07T10:12:09;6.05;;;4.75;;
49834;SDS011;35729;52.090;13.162;2023-05-07T10:14:38;6.07;;;4.15;;
49834;SDS011;35729;52.090;13.162;2023-05-07T10:17:07;5.10;;;4.10;;
49834;SDS011;35729;52.090;13.162;2023-05-07T10:19:39;5.18;;;4.25;;
49834;SDS011;35729;52.090;13.162;2023-05-07T10:22:09;5.50;;;4.05;;
49834;SDS011;35729;52.090;13.162;2023-05-07T10:24:37;5.32;;;3.92;;
49834;SDS011;35729;52.090;13.162;2023-05-07T10:27:07;5.95;;;4.82;;
49834;SDS011;35729;52.090;13.162;2023-05-07T10:29:42;5.80;;;5.20;;
49834;SDS011;35729;52.090;13.162;2023-05-07T10:35:10;6.60;;;5.18;;
49834;SDS011;35729;52.090;13.162;2023-05-07T10:37:43;4.65;;;3.85;;
49834;SDS011;35729;52.090;13.162;2023-05-07T10:40:13;5.03;;;4.53;;
49834;SDS011;35729;52.090;13.162;2023-05-07T10:45:26;10.20;;;7.30;;
49834;SDS011;35729;52.090;13.162;2023-05-07T10:48:05;6.28;;;5.13;;
49834;SDS011;35729;52.090;13.162;2023-05-07T10:50:37;8.50;;;5.20;;
49834;SDS011;35729;52.090;13.162;2023-05-07T10:58:54;4.13;;;3.33;;
49834;SDS011;35729;52.090;13.162;2023-05-07T11:04:21;4.38;;;3.35;;
49834;SDS011;35729;52.090;13.162;2023-05-07T11:09:55;6.93;;;4.63;;
49834;SDS011;35729;52.090;13.162;2023-05-07T11:18:25;3.50;;;2.83;;
49834;SDS011;35729;52.090;13.162;2023-05-07T11:21:20;5.07;;;2.90;;
49834;SDS011;35729;52.090;13.162;2023-05-07T11:24:03;3.13;;;2.80;;
49834;SDS011;35729;52.090;13.162;2023-05-07T11:26:42;3.00;;;2.65;;
49834;SDS011;35729;52.090;13.162;2023-05-07T11:29:16;3.10;;;2.80;;
49834;SDS011;35729;52.090;13.162;2023-05-07T11:31:48;4.18;;;2.78;;
49834;SDS011;35729;52.090;13.162;2023-05-07T11:34:20;3.30;;;2.58;;
49834;SDS011;35729;52.090;13.162;2023-05-07T11:36:50;2.75;;;2.17;;
49834;SDS011;35729;52.090;13.162;2023-05-07T11:39:26;3.70;;;2.30;;
49834;SDS011;35729;52.090;13.162;2023-05-07T11:41:55;2.92;;;2.50;;
49834;SDS011;35729;52.090;13.162;2023-05-07T11:44:24;2.63;;;2.33;;
49834;SDS011;35729;52.090;13.162;2023-05-07T11:46:52;2.45;;;2.25;;
49834;SDS011;35729;52.090;13.162;2023-05-07T11:49:21;3.42;;;2.13;;
49834;SDS011;35729;52.090;13.162;2023-05-07T11:51:54;2.60;;;2.40;;
49834;SDS011;35729;52.090;13.162;2023-05-07T11:54:26;3.25;;;2.50;;
49834;SDS011;35729;52.090;13.162;2023-05-07T11:57:03;2.72;;;2.50;;
49834;SDS011;35729;52.090;13.162;2023-05-07T11:59:37;2.95;;;2.22;;
49834;SDS011;35729;52.090;13.162;2023-05-07T12:02:07;3.05;;;2.28;;
49834;SDS011;35729;52.090;13.162;2023-05-07T12:04:37;2.90;;;2.22;;
49834;SDS011;35729;52.090;13.162;2023-05-07T12:07:10;2.75;;;2.05;;
49834;SDS011;35729;52.090;13.162;2023-05-07T12:09:42;2.78;;;2.28;;
49834;SDS011;35729;52.090;13.162;2023-05-07T12:12:12;3.40;;;1.95;;
49834;SDS011;35729;52.090;13.162;2023-05-07T12:14:43;3.13;;;2.10;;
49834;SDS011;35729;52.090;13.162;2023-05-07T12:17:13;2.28;;;1.85;;
49834;SDS011;35729;52.090;13.162;2023-05-07T12:19:42;6.07;;;2.47;;
49834;SDS011;35729;52.090;13.162;2023-05-07T12:22:12;3.17;;;2.30;;
49834;SDS011;35729;52.090;13.162;2023-05-07T12:24:48;5.30;;;1.80;;
49834;SDS011;35729;52.090;13.162;2023-05-07T12:27:17;3.67;;;2.30;;
49834;SDS011;35729;52.090;13.162;2023-05-07T12:29:46;3.75;;;3.38;;
49834;SDS011;35729;52.090;13.162;2023-05-07T12:32:15;3.50;;;2.10;;
49834;SDS011;35729;52.090;13.162;2023-05-07T12:34:44;6.25;;;2.53;;
49834;SDS011;35729;52.090;13.162;2023-05-07T12:37:13;2.38;;;1.80;;
49834;SDS011;35729;52.090;13.162;2023-05-07T12:39:49;3.30;;;2.15;;
49834;SDS011;35729;52.090;13.162;2023-05-07T12:42:32;2.08;;;1.80;;
49834;SDS011;35729;52.090;13.162;2023-05-07T12:45:10;3.17;;;2.03;;
49834;SDS011;35729;52.090;13.162;2023-05-07T12:47:38;5.47;;;2.00;;
49834;SDS011;35729;52.090;13.162;2023-05-07T12:50:13;2.67;;;1.77;;
49834;SDS011;35729;52.090;13.162;2023-05-07T12:52:43;2.25;;;1.67;;
49834;SDS011;35729;52.090;13.162;2023-05-07T12:55:15;2.85;;;1.65;;
49834;SDS011;35729;52.090;13.162;2023-05-07T12:57:45;2.38;;;2.15;;
49834;SDS011;35729;52.090;13.162;2023-05-07T13:00:16;2.38;;;1.70;;
49834;SDS011;35729;52.090;13.162;2023-05-07T13:02:45;2.17;;;1.60;;
49834;SDS011;35729;52.090;13.162;2023-05-07T13:05:13;10.25;;;1.98;;
49834;SDS011;35729;52.090;13.162;2023-05-07T13:07:52;2.00;;;1.80;;
49834;SDS011;35729;52.090;13.162;2023-05-07T13:10:24;3.13;;;1.67;;
49834;SDS011;35729;52.090;13.162;2023-05-07T13:12:52;3.50;;;1.92;;
49834;SDS011;35729;52.090;13.162;2023-05-07T13:15:21;2.35;;;1.70;;
49834;SDS011;35729;52.090;13.162;2023-05-07T13:17:49;4.32;;;2.40;;
49834;SDS011;35729;52.090;13.162;2023-05-07T13:20:18;3.42;;;1.70;;
49834;SDS011;35729;52.090;13.162;2023-05-07T13:22:47;5.00;;;3.22;;
49834;SDS011;35729;52.090;13.162;2023-05-07T13:25:15;3.80;;;2.78;;
49834;SDS011;35729;52.090;13.162;2023-05-07T13:27:47;3.10;;;2.47;;
49834;SDS011;35729;52.090;13.162;2023-05-07T13:30:15;3.55;;;2.40;;
49834;SDS011;35729;52.090;13.162;2023-05-07T13:32:44;3.80;;;2.60;;
49834;SDS011;35729;52.090;13.162;2023-05-07T13:35:14;3.42;;;1.98;;
49834;SDS011;35729;52.090;13.162;2023-05-07T13:37:42;4.45;;;2.22;;
49834;SDS011;35729;52.090;13.162;2023-05-07T13:40:11;3.70;;;2.75;;
49834;SDS011;35729;52.090;13.162;2023-05-07T13:42:40;3.40;;;2.90;;
49834;SDS011;35729;52.090;13.162;2023-05-07T13:45:11;5.30;;;2.63;;
49834;SDS011;35729;52.090;13.162;2023-05-07T13:47:40;6.00;;;2.30;;
49834;SDS011;35729;52.090;13.162;2023-05-07T13:50:09;4.18;;;2.97;;
49834;SDS011;35729;52.090;13.162;2023-05-07T13:52:39;6.03;;;4.28;;
49834;SDS011;35729;52.090;13.162;2023-05-07T13:55:08;3.15;;;2.00;;
49834;SDS011;35729;52.090;13.162;2023-05-07T13:57:38;5.80;;;3.40;;
49834;SDS011;35729;52.090;13.162;2023-05-07T14:00:07;2.92;;;2.45;;
49834;SDS011;35729;52.090;13.162;2023-05-07T14:02:41;2.60;;;2.22;;
49834;SDS011;35729;52.090;13.162;2023-05-07T14:05:10;3.10;;;2.25;;
49834;SDS011;35729;52.090;13.162;2023-05-07T14:07:38;3.28;;;2.78;;
49834;SDS011;35729;52.090;13.162;2023-05-07T14:10:07;1.95;;;1.75;;
49834;SDS011;35729;52.090;13.162;2023-05-07T14:12:36;3.97;;;2.20;;
49834;SDS011;35729;52.090;13.162;2023-05-07T14:15:06;3.75;;;1.92;;
49834;SDS011;35729;52.090;13.162;2023-05-07T14:17:38;3.17;;;2.03;;
49834;SDS011;35729;52.090;13.162;2023-05-07T14:20:07;2.50;;;1.90;;
49834;SDS011;35729;52.090;13.162;2023-05-07T14:22:36;2.85;;;2.00;;
49834;SDS011;35729;52.090;13.162;2023-05-07T14:25:06;4.05;;;2.17;;
49834;SDS011;35729;52.090;13.162;2023-05-07T14:27:35;11.32;;;4.85;;
49834;SDS011;35729;52.090;13.162;2023-05-07T14:30:04;4.07;;;2.50;;
49834;SDS011;35729;52.090;13.162;2023-05-07T14:32:34;4.57;;;3.28;;
49834;SDS011;35729;52.090;13.162;2023-05-07T14:35:05;7.72;;;5.60;;
49834;SDS011;35729;52.090;13.162;2023-05-07T14:37:34;3.70;;;2.67;;
49834;SDS011;35729;52.090;13.162;2023-05-07T14:40:03;4.20;;;2.75;;
49834;SDS011;35729;52.090;13.162;2023-05-07T14:42:32;3.42;;;2.63;;
49834;SDS011;35729;52.090;13.162;2023-05-07T14:45:00;3.40;;;2.42;;
49834;SDS011;35729;52.090;13.162;2023-05-07T14:47:29;3.00;;;2.47;;
49834;SDS011;35729;52.090;13.162;2023-05-07T14:49:57;3.45;;;2.45;;
49834;SDS011;35729;52.090;13.162;2023-05-07T14:52:28;3.42;;;2.78;;
49834;SDS011;35729;52.090;13.162;2023-05-07T14:54:57;2.83;;;2.45;;
49834;SDS011;35729;52.090;13.162;2023-05-07T14:57:25;3.65;;;3.08;;
49834;SDS011;35729;52.090;13.162;2023-05-07T14:59:54;6.05;;;4.25;;
49834;SDS011;35729;52.090;13.162;2023-05-07T15:02:22;3.53;;;2.30;;